createdAt,value
2023-05-08T00:01:42.704Z,5.97
2023-05-08T00:04:10.780Z,9.15
2023-05-08T00:06:40.075Z,5.32
2023-05-08T00:09:07.794Z,6.75
2023-05-08T00:11:35.548Z,4.65
2023-05-08T00:14:03.254Z,5.18
2023-05-08T00:16:31.119Z,7.07
2023-05-08T00:18:59.632Z,5.50
2023-05-08T00:21:27.588Z,6.93
2023-05-08T00:23:56.713Z,6.90
2023-05-08T00:26:24.487Z,5.80
2023-05-08T00:28:52.187Z,6.97
2023-05-08T00:31:19.894Z,5.00
2023-05-08T00:33:47.594Z,4.20
2023-05-08T00:36:15.729Z,11.50
2023-05-08T00:38:43.606Z,4.72
2023-05-08T00:41:13.205Z,6.80
2023-05-08T00:43:40.941Z,5.10
2023-05-08T00:46:09.613Z,7.20
2023-05-08T00:48:37.982Z,6.05
2023-05-08T00:51:08.284Z,16.50
2023-05-08T00:53:38.968Z,4.60
2023-05-08T00:56:07.640Z,4.55
2023-05-08T00:58:36.770Z,6.85
2023-05-08T01:01:05.089Z,7.07
2023-05-08T01:03:34.096Z,5.03
2023-05-08T01:06:03.170Z,6.15
2023-05-08T01:08:32.017Z,4.90
2023-05-08T01:11:09.986Z,4.78
2023-05-08T01:13:50.886Z,6.18
2023-05-08T01:16:24.086Z,8.38
2023-05-08T01:19:04.900Z,4.53
2023-05-08T01:21:39.346Z,5.22
2023-05-08T01:24:54.763Z,6.10
2023-05-08T01:27:55.750Z,5.88
2023-05-08T01:30:44.606Z,4.43
2023-05-08T01:33:21.770Z,5.53
2023-05-08T01:35:54.043Z,4.10
2023-05-08T01:38:33.203Z,3.80
2023-05-08T01:41:08.102Z,3.90
2023-05-08T01:43:53.226Z,5.03
2023-05-08T01:46:25.100Z,9.23
2023-05-08T01:49:01.129Z,4.05
2023-05-08T01:51:32.872Z,5.72
2023-05-08T01:56:35.396Z,4.07
2023-05-08T01:59:04.805Z,4.60
2023-05-08T02:01:34.505Z,4.43
2023-05-08T02:04:04.670Z,3.75
2023-05-08T02:06:33.252Z,5.00
2023-05-08T02:09:01.577Z,5.28
2023-05-08T02:11:31.777Z,4.65
2023-05-08T02:14:01.696Z,3.75
2023-05-08T02:16:30.837Z,4.35
2023-05-08T02:19:01.386Z,4.00
2023-05-08T02:21:32.197Z,6.38
2023-05-08T02:24:01.404Z,4.72
2023-05-08T02:26:29.998Z,4.93
2023-05-08T02:28:59.087Z,4.10
2023-05-08T02:31:27.377Z,4.35
2023-05-08T02:33:56.198Z,3.95
2023-05-08T02:36:24.485Z,4.15
2023-05-08T02:38:57.075Z,4.70
2023-05-08T02:41:30.231Z,3.67
2023-05-08T02:43:58.175Z,5.63
2023-05-08T02:46:29.889Z,6.63
2023-05-08T02:49:01.244Z,4.32
2023-05-08T02:51:38.626Z,6.38
2023-05-08T02:54:22.795Z,3.88
2023-05-08T02:56:57.926Z,6.25
2023-05-08T02:59:32.199Z,3.38
2023-05-08T03:02:10.502Z,7.05
2023-05-08T03:04:45.654Z,4.45
2023-05-08T03:07:13.731Z,3.90
2023-05-08T03:09:46.247Z,7.15
2023-05-08T03:12:17.905Z,5.68
2023-05-08T03:14:53.904Z,4.25
2023-05-08T03:17:24.482Z,5.00
2023-05-08T03:20:00.532Z,3.53
2023-05-08T03:22:29.561Z,4.10
2023-05-08T03:25:00.990Z,4.65
2023-05-08T03:27:30.305Z,3.67
2023-05-08T03:29:59.223Z,4.38
2023-05-08T03:32:28.504Z,3.67
2023-05-08T03:34:59.602Z,6.03
2023-05-08T03:37:28.442Z,5.32
2023-05-08T03:39:57.966Z,6.97
2023-05-08T03:42:27.486Z,5.88
2023-05-08T03:44:55.616Z,5.63
2023-05-08T03:47:24.180Z,3.60
2023-05-08T03:49:53.638Z,4.10
2023-05-08T03:52:21.374Z,3.17
2023-05-08T03:54:49.154Z,6.97
2023-05-08T03:57:18.229Z,3.95
2023-05-08T03:59:59.638Z,3.22
2023-05-08T04:02:34.804Z,4.63
2023-05-08T04:05:07.829Z,4.45
2023-05-08T04:07:43.754Z,3.67
2023-05-08T04:12:58.421Z,4.35
2023-05-08T04:15:30.177Z,3.17
2023-05-08T04:18:01.318Z,3.50
2023-05-08T04:20:31.522Z,4.57
2023-05-08T04:23:00.175Z,4.78
2023-05-08T04:25:29.409Z,9.05
2023-05-08T04:28:00.225Z,3.80
2023-05-08T04:30:28.140Z,3.25
2023-05-08T04:32:56.695Z,7.32
2023-05-08T04:35:24.775Z,3.53
2023-05-08T04:37:53.245Z,3.95
2023-05-08T04:40:21.056Z,4.72
2023-05-08T04:42:48.839Z,9.52
2023-05-08T04:45:18.648Z,4.15
2023-05-08T04:47:46.494Z,3.35
2023-05-08T04:50:14.365Z,4.20
2023-05-08T04:52:42.687Z,6.03
2023-05-08T04:55:11.147Z,4.68
2023-05-08T04:57:39.591Z,4.40
2023-05-08T05:00:08.845Z,5.25
2023-05-08T05:02:38.120Z,7.15
2023-05-08T05:05:06.601Z,7.18
2023-05-08T05:07:34.372Z,5.90
2023-05-08T05:10:02.166Z,7.28
2023-05-08T05:12:29.946Z,4.53
2023-05-08T05:14:57.643Z,6.80
2023-05-08T05:17:25.471Z,7.03
2023-05-08T05:19:54.601Z,5.60
2023-05-08T05:22:22.341Z,5.07
2023-05-08T05:24:50.248Z,6.40
2023-05-08T05:27:20.596Z,4.40
2023-05-08T05:29:49.038Z,4.18
2023-05-08T05:32:16.781Z,8.10
2023-05-08T05:34:44.596Z,4.28
2023-05-08T05:37:13.661Z,6.60
2023-05-08T05:39:41.356Z,6.47
2023-05-08T05:42:09.154Z,5.38
2023-05-08T05:44:37.615Z,7.20
2023-05-08T05:47:06.042Z,4.78
2023-05-08T05:49:34.338Z,6.95
2023-05-08T05:52:02.127Z,4.10
2023-05-08T05:54:31.245Z,5.93
2023-05-08T05:56:59.153Z,6.47
2023-05-08T05:59:26.910Z,4.22
2023-05-08T06:01:54.693Z,4.32
2023-05-08T06:04:22.473Z,6.07
2023-05-08T06:06:50.302Z,5.20
2023-05-08T06:09:18.009Z,4.63
2023-05-08T06:11:47.318Z,5.07
2023-05-08T06:14:15.048Z,5.88
2023-05-08T06:16:44.892Z,7.18
2023-05-08T06:19:12.876Z,6.35
2023-05-08T06:21:40.911Z,7.55
2023-05-08T06:24:09.158Z,6.28
2023-05-08T06:26:36.928Z,5.13
2023-05-08T06:29:06.170Z,7.85
2023-05-08T06:31:34.013Z,9.35
2023-05-08T06:34:01.876Z,6.65
2023-05-08T06:36:29.666Z,5.47
2023-05-08T06:38:57.376Z,4.70
2023-05-08T06:41:25.155Z,5.68
2023-05-08T06:43:52.865Z,6.97
2023-05-08T06:46:22.008Z,9.30
2023-05-08T06:48:49.789Z,5.63
2023-05-08T06:51:17.584Z,7.78
2023-05-08T06:53:45.349Z,4.60
2023-05-08T06:56:13.065Z,5.75
2023-05-08T06:58:40.896Z,6.63
2023-05-08T07:01:08.689Z,5.80
2023-05-08T07:03:38.331Z,5.10
2023-05-08T07:06:06.828Z,5.25
2023-05-08T07:08:34.650Z,6.00
2023-05-08T07:11:02.600Z,6.18
2023-05-08T07:13:30.689Z,5.97
2023-05-08T07:15:58.516Z,8.82
2023-05-08T07:18:26.279Z,5.78
2023-05-08T07:20:55.389Z,7.00
2023-05-08T07:23:23.135Z,6.78
2023-05-08T07:25:50.937Z,7.07
2023-05-08T07:28:18.694Z,6.35
2023-05-08T07:30:46.391Z,6.05
2023-05-08T07:33:14.221Z,5.85
2023-05-08T07:35:42.880Z,7.15
2023-05-08T07:38:11.973Z,15.75
2023-05-08T07:40:39.689Z,6.75
2023-05-08T07:43:07.421Z,6.65
2023-05-08T07:45:36.296Z,6.57
2023-05-08T07:48:04.138Z,6.75
2023-05-08T07:50:31.883Z,7.00
2023-05-08T07:52:59.641Z,6.25
2023-05-08T07:55:28.700Z,8.90
2023-05-08T07:57:56.424Z,6.97
2023-05-08T08:00:24.162Z,7.15
2023-05-08T08:02:53.987Z,7.18
2023-05-08T08:05:24.236Z,7.53
2023-05-08T08:07:53.940Z,6.10
2023-05-08T08:10:23.784Z,7.40
2023-05-08T08:12:55.140Z,8.85
2023-05-08T08:15:24.916Z,37.67
2023-05-08T08:17:54.565Z,14.95
2023-05-08T08:20:24.483Z,8.00
2023-05-08T08:22:54.097Z,8.30
2023-05-08T08:25:24.175Z,8.73
2023-05-08T08:27:55.426Z,9.07
2023-05-08T08:30:25.175Z,8.05
2023-05-08T08:32:55.051Z,9.48
2023-05-08T08:35:29.735Z,6.50
2023-05-08T08:37:59.562Z,8.70
2023-05-08T08:40:29.517Z,11.57
2023-05-08T08:43:01.106Z,7.05
2023-05-08T08:45:30.725Z,8.85
2023-05-08T08:48:04.717Z,8.77
2023-05-08T08:50:35.235Z,6.57
2023-05-08T08:53:16.782Z,10.45
2023-05-08T08:55:50.268Z,9.73
2023-05-08T08:58:25.719Z,8.95
2023-05-08T09:00:55.357Z,13.52
2023-05-08T09:03:23.274Z,10.35
2023-05-08T09:05:51.916Z,8.50
2023-05-08T09:08:20.069Z,9.13
2023-05-08T09:10:48.087Z,9.32
2023-05-08T09:13:17.358Z,14.10
2023-05-08T09:15:49.016Z,10.18
2023-05-08T09:18:17.469Z,6.78
2023-05-08T09:20:45.842Z,9.70
2023-05-08T09:23:17.376Z,7.70
2023-05-08T09:25:46.492Z,10.68
2023-05-08T09:28:18.309Z,7.80
2023-05-08T09:30:55.202Z,11.10
2023-05-08T09:33:26.091Z,10.60
2023-05-08T09:35:54.067Z,7.68
2023-05-08T09:38:38.474Z,8.70
2023-05-08T09:41:14.481Z,8.57
2023-05-08T09:43:43.500Z,7.53
2023-05-08T09:46:26.247Z,11.80
2023-05-08T09:48:55.797Z,11.27
2023-05-08T09:51:24.016Z,9.05
2023-05-08T09:53:53.645Z,9.77
2023-05-08T09:56:38.848Z,15.40
2023-05-08T09:59:23.709Z,13.68
2023-05-08T10:01:52.903Z,6.97
2023-05-08T10:04:33.084Z,7.15
2023-05-08T10:07:01.131Z,7.53
2023-05-08T10:09:38.861Z,8.93
2023-05-08T10:12:10.728Z,9.57
2023-05-08T10:14:38.504Z,9.65
2023-05-08T10:17:11.069Z,7.65
2023-05-08T10:19:46.945Z,9.13
2023-05-08T10:24:46.637Z,9.88
2023-05-08T10:27:20.399Z,7.82
2023-05-08T10:29:53.640Z,9.07
2023-05-08T10:32:25.004Z,8.10
2023-05-08T10:34:54.525Z,7.35
2023-05-08T10:37:22.725Z,7.15
2023-05-08T10:39:51.123Z,7.93
2023-05-08T10:42:19.435Z,8.48
2023-05-08T10:44:47.742Z,10.82
2023-05-08T10:47:22.128Z,10.45
2023-05-08T10:50:01.250Z,25.05
2023-05-08T10:52:35.747Z,16.50
2023-05-08T10:55:20.379Z,10.38
2023-05-08T10:58:07.452Z,11.55
2023-05-08T11:01:16.119Z,8.85
2023-05-08T11:03:46.269Z,7.93
2023-05-08T11:06:16.283Z,7.35
2023-05-08T11:08:49.140Z,7.65
2023-05-08T11:11:26.812Z,7.30
2023-05-08T11:13:58.971Z,7.25
2023-05-08T11:17:03.441Z,7.90
2023-05-08T11:19:31.378Z,7.20
2023-05-08T11:22:24.396Z,7.43
2023-05-08T11:24:56.345Z,7.40
2023-05-08T11:28:05.663Z,9.68
2023-05-08T11:30:41.377Z,7.60
2023-05-08T11:33:17.240Z,7.25
2023-05-08T11:35:50.567Z,6.80
2023-05-08T11:38:25.320Z,4.95
2023-05-08T11:40:58.755Z,7.20
2023-05-08T11:43:42.137Z,7.20
2023-05-08T11:46:16.476Z,5.13
2023-05-08T11:48:44.716Z,9.20
2023-05-08T11:51:13.624Z,6.50
2023-05-08T11:53:44.746Z,5.28
2023-05-08T11:56:12.543Z,9.57
2023-05-08T11:58:40.284Z,5.78
2023-05-08T12:01:08.141Z,7.10
2023-05-08T12:03:35.996Z,4.68
2023-05-08T12:06:03.969Z,4.95
2023-05-08T12:08:31.726Z,5.40
2023-05-08T12:11:00.816Z,7.47
2023-05-08T12:13:30.588Z,5.95
2023-05-08T12:15:59.934Z,4.82
2023-05-08T12:18:30.376Z,5.35
2023-05-08T12:20:59.498Z,5.78
2023-05-08T12:23:29.242Z,5.60
2023-05-08T12:26:02.016Z,4.55
2023-05-08T12:28:30.028Z,6.22
2023-05-08T12:30:57.836Z,5.68
2023-05-08T12:33:26.112Z,5.80
2023-05-08T12:35:53.989Z,4.82
2023-05-08T12:38:27.138Z,6.25
2023-05-08T12:40:55.582Z,5.25
2023-05-08T12:43:33.032Z,7.00
2023-05-08T12:46:00.828Z,5.10
2023-05-08T12:48:29.297Z,7.97
2023-05-08T12:51:03.659Z,5.93
2023-05-08T12:53:33.003Z,6.70
2023-05-08T12:56:03.910Z,6.07
2023-05-08T12:58:35.399Z,6.85
2023-05-08T13:01:09.937Z,5.28
2023-05-08T13:03:38.344Z,6.18
2023-05-08T13:06:06.652Z,5.50
2023-05-08T13:08:36.391Z,4.55
2023-05-08T13:11:06.055Z,4.47
2023-05-08T13:13:36.590Z,5.68
2023-05-08T13:16:06.243Z,8.52
2023-05-08T13:18:36.553Z,5.63
2023-05-08T13:21:04.544Z,4.00
2023-05-08T13:23:32.494Z,7.13
2023-05-08T13:26:00.334Z,4.38
2023-05-08T13:28:28.076Z,5.53
2023-05-08T13:30:57.218Z,4.43
2023-05-08T13:33:24.954Z,3.80
2023-05-08T13:35:52.650Z,3.70
2023-05-08T13:38:20.364Z,5.40
2023-05-08T13:40:48.088Z,3.38
2023-05-08T13:43:15.796Z,4.13
2023-05-08T13:45:43.703Z,6.03
2023-05-08T13:48:12.874Z,4.57
2023-05-08T13:50:40.607Z,5.38
2023-05-08T13:53:08.449Z,3.90
2023-05-08T13:55:37.592Z,4.35
2023-05-08T13:58:05.412Z,4.88
2023-05-08T14:00:34.380Z,4.85
2023-05-08T14:03:02.320Z,4.97
2023-05-08T14:05:31.543Z,6.22
2023-05-08T14:07:59.249Z,4.20
2023-05-08T14:10:27.050Z,4.07
2023-05-08T14:12:54.811Z,5.18
2023-05-08T14:15:26.827Z,4.40
2023-05-08T14:17:59.492Z,5.72
2023-05-08T14:20:27.326Z,4.05
2023-05-08T14:22:59.788Z,5.13
2023-05-08T14:25:28.157Z,6.65
2023-05-08T14:27:55.910Z,4.18
2023-05-08T14:30:23.905Z,6.00
2023-05-08T14:32:51.726Z,5.22
2023-05-08T14:35:19.756Z,7.00
2023-05-08T14:37:47.535Z,4.80
2023-05-08T14:40:16.674Z,5.25
2023-05-08T14:42:44.366Z,4.43
2023-05-08T14:45:12.908Z,6.30
2023-05-08T14:47:40.828Z,5.25
2023-05-08T14:50:09.373Z,6.00
2023-05-08T14:52:37.091Z,7.28
2023-05-08T14:55:05.290Z,4.25
2023-05-08T14:57:34.513Z,5.22
2023-05-08T15:00:02.310Z,6.57
2023-05-08T15:02:30.143Z,5.05
2023-05-08T15:04:57.954Z,4.63
2023-05-08T15:07:25.698Z,6.55
2023-05-08T15:09:53.904Z,4.18
2023-05-08T15:12:21.664Z,5.85
2023-05-08T15:14:51.140Z,5.22
2023-05-08T15:17:18.879Z,4.22
2023-05-08T15:19:46.587Z,6.15
2023-05-08T15:22:14.567Z,4.50
2023-05-08T15:24:42.393Z,9.20
2023-05-08T15:27:11.617Z,5.18
2023-05-08T15:29:39.652Z,4.40
2023-05-08T15:32:08.890Z,7.28
2023-05-08T15:34:38.055Z,7.43
2023-05-08T15:37:06.981Z,6.43
2023-05-08T15:39:36.794Z,5.57
2023-05-08T15:42:04.953Z,8.15
2023-05-08T15:44:52.539Z,7.80
2023-05-08T15:47:22.905Z,6.25
2023-05-08T15:49:50.644Z,9.98
2023-05-08T15:52:19.591Z,8.82
2023-05-08T15:54:47.471Z,6.82
2023-05-08T15:57:15.254Z,7.35
2023-05-08T15:59:43.096Z,7.30
2023-05-08T16:02:11.105Z,7.65
2023-05-08T16:04:40.243Z,5.97
2023-05-08T16:07:07.985Z,8.75
2023-05-08T16:09:35.695Z,7.47
2023-05-08T16:12:03.416Z,9.02
2023-05-08T16:14:31.138Z,7.53
2023-05-08T16:16:58.893Z,9.50
2023-05-08T16:19:26.704Z,8.15
2023-05-08T16:21:55.825Z,6.82
2023-05-08T16:24:23.580Z,9.93
2023-05-08T16:26:51.392Z,9.05
2023-05-08T16:29:19.113Z,9.73
2023-05-08T16:31:46.912Z,8.18
2023-05-08T16:34:14.726Z,8.18
2023-05-08T16:36:42.440Z,7.28
2023-05-08T16:39:12.001Z,8.13
2023-05-08T16:41:39.735Z,10.57
2023-05-08T16:44:07.626Z,8.75
2023-05-08T16:46:35.405Z,7.35
2023-05-08T16:49:03.119Z,7.65
2023-05-08T16:51:32.215Z,9.48
2023-05-08T16:54:00.149Z,7.78
2023-05-08T16:56:29.301Z,6.90
2023-05-08T16:58:57.123Z,7.13
2023-05-08T17:01:25.049Z,9.88
2023-05-08T17:03:52.915Z,7.28
2023-05-08T17:06:20.864Z,7.82
2023-05-08T17:08:48.566Z,9.15
2023-05-08T17:11:16.306Z,7.32
2023-05-08T17:13:46.104Z,9.63
2023-05-08T17:16:13.883Z,7.68
2023-05-08T17:18:41.660Z,8.15
2023-05-08T17:21:09.448Z,9.60
2023-05-08T17:23:37.289Z,7.90
2023-05-08T17:26:05.307Z,8.48
2023-05-08T17:28:33.038Z,7.88
2023-05-08T17:31:02.251Z,8.55
2023-05-08T17:33:30.057Z,8.60
2023-05-08T17:35:57.882Z,15.77
2023-05-08T17:38:25.677Z,8.85
2023-05-08T17:40:53.454Z,8.85
2023-05-08T17:43:21.424Z,10.13
2023-05-08T17:45:49.229Z,9.57
2023-05-08T17:48:18.410Z,7.57
2023-05-08T17:50:46.822Z,8.57
2023-05-08T17:53:14.564Z,8.52
2023-05-08T17:55:42.356Z,15.85
2023-05-08T17:58:10.200Z,10.13
2023-05-08T18:00:38.584Z,10.18
2023-05-08T18:03:06.552Z,11.05
2023-05-08T18:05:35.757Z,10.32
2023-05-08T18:08:03.513Z,9.48
2023-05-08T18:10:32.197Z,8.70
2023-05-08T18:13:00.046Z,8.15
2023-05-08T18:15:28.236Z,8.18
2023-05-08T18:17:56.068Z,8.77
2023-05-08T18:20:23.798Z,9.77
2023-05-08T18:22:53.007Z,9.57
2023-05-08T18:25:21.021Z,8.57
2023-05-08T18:27:50.194Z,8.57
2023-05-08T18:30:18.161Z,10.88
2023-05-08T18:32:45.935Z,8.85
2023-05-08T18:35:13.767Z,9.85
2023-05-08T18:37:41.594Z,8.73
2023-05-08T18:40:12.121Z,11.95
2023-05-08T18:42:40.292Z,9.02
2023-05-08T18:45:09.358Z,9.45
2023-05-08T18:47:37.163Z,11.40
2023-05-08T18:50:05.398Z,9.32
2023-05-08T18:52:33.207Z,13.63
2023-05-08T18:55:00.918Z,12.43
2023-05-08T18:57:30.030Z,11.02
2023-05-08T18:59:57.777Z,9.02
2023-05-08T19:02:27.820Z,11.20
2023-05-08T19:04:55.758Z,10.57
2023-05-08T19:07:23.551Z,10.63
2023-05-08T19:09:51.373Z,10.73
2023-05-08T19:12:19.115Z,9.32
2023-05-08T19:14:48.984Z,10.02
2023-05-08T19:17:16.919Z,9.63
2023-05-08T19:19:44.685Z,10.30
2023-05-08T19:22:12.539Z,10.07
2023-05-08T19:24:40.482Z,10.02
2023-05-08T19:27:08.686Z,10.73
2023-05-08T19:29:36.522Z,12.65
2023-05-08T19:32:06.345Z,10.60
2023-05-08T19:34:36.850Z,9.80
2023-05-08T19:37:04.692Z,11.32
2023-05-08T19:39:32.544Z,17.00
2023-05-08T19:42:00.398Z,11.13
2023-05-08T19:44:28.216Z,12.77
2023-05-08T19:46:56.018Z,14.20
2023-05-08T19:49:25.192Z,12.63
2023-05-08T19:51:52.933Z,10.70
2023-05-08T19:54:20.658Z,11.70
2023-05-08T19:56:48.448Z,10.98
2023-05-08T19:59:16.288Z,11.88
2023-05-08T20:01:44.238Z,13.50
2023-05-08T20:04:12.069Z,12.00
2023-05-08T20:06:41.153Z,10.45
2023-05-08T20:09:09.088Z,11.38
2023-05-08T20:11:37.578Z,12.00
2023-05-08T20:14:05.384Z,12.90
2023-05-08T20:16:33.290Z,13.95
2023-05-08T20:19:01.590Z,12.52
2023-05-08T20:21:32.113Z,16.77
2023-05-08T20:24:01.733Z,15.38
2023-05-08T20:26:30.217Z,16.58
2023-05-08T20:28:58.159Z,13.80
2023-05-08T20:31:27.737Z,10.68
2023-05-08T20:33:55.557Z,11.18
2023-05-08T20:36:23.360Z,15.70
2023-05-08T20:38:51.243Z,15.88
2023-05-08T20:41:20.346Z,15.00
2023-05-08T20:43:48.247Z,15.00
2023-05-08T20:46:16.106Z,10.07
2023-05-08T20:48:44.333Z,11.48
2023-05-08T20:51:12.560Z,11.95
2023-05-08T20:53:41.558Z,13.75
2023-05-08T20:56:09.514Z,14.20
2023-05-08T20:58:38.998Z,9.82
2023-05-08T21:01:07.166Z,9.88
2023-05-08T21:03:36.092Z,9.90
2023-05-08T21:06:04.153Z,10.30
2023-05-08T21:08:32.002Z,13.18
2023-05-08T21:11:01.548Z,10.70
2023-05-08T21:13:29.289Z,10.75
2023-05-08T21:15:58.394Z,11.18
2023-05-08T21:18:26.190Z,9.57
2023-05-08T21:20:54.160Z,10.90
2023-05-08T21:23:22.328Z,12.60
2023-05-08T21:25:50.904Z,13.30
2023-05-08T21:28:18.815Z,10.07
2023-05-08T21:30:46.877Z,9.85
2023-05-08T21:33:15.997Z,11.98
2023-05-08T21:35:44.317Z,10.30
2023-05-08T21:38:12.737Z,11.82
2023-05-08T21:40:40.569Z,12.43
2023-05-08T21:43:08.460Z,12.88
2023-05-08T21:45:36.332Z,10.25
2023-05-08T21:48:04.393Z,11.52
2023-05-08T21:50:33.461Z,11.23
2023-05-08T21:53:01.347Z,12.00
2023-05-08T21:55:30.977Z,12.43
2023-05-08T21:58:00.043Z,11.60
2023-05-08T22:00:27.755Z,11.43
2023-05-08T22:02:55.578Z,24.83
2023-05-08T22:05:24.255Z,13.32
2023-05-08T22:07:53.814Z,10.73
2023-05-08T22:10:21.897Z,11.23
2023-05-08T22:12:49.891Z,11.77
2023-05-08T22:15:29.017Z,14.35
2023-05-08T22:17:57.266Z,10.68
2023-05-08T22:20:25.291Z,13.52
2023-05-08T22:22:54.418Z,11.07
2023-05-08T22:25:22.207Z,10.40
2023-05-08T22:27:50.032Z,12.77
2023-05-08T22:30:17.737Z,12.80
2023-05-08T22:32:46.627Z,12.98
2023-05-08T22:35:15.825Z,17.10
2023-05-08T22:37:43.688Z,14.43
2023-05-08T22:40:13.924Z,13.07
2023-05-08T22:42:41.774Z,13.07
2023-05-08T22:45:11.372Z,14.45
2023-05-08T22:47:39.448Z,14.25
2023-05-08T22:50:09.136Z,14.25
2023-05-08T22:52:37.185Z,14.20
2023-05-08T22:55:05.777Z,12.48
2023-05-08T22:57:34.882Z,12.60
2023-05-08T23:00:02.970Z,13.85
2023-05-08T23:02:32.921Z,15.02
2023-05-08T23:05:00.698Z,14.85
2023-05-08T23:07:29.143Z,16.33
2023-05-08T23:09:56.940Z,13.13
2023-05-08T23:12:24.670Z,13.57
2023-05-08T23:14:53.799Z,13.25
2023-05-08T23:17:21.641Z,14.20
2023-05-08T23:19:49.410Z,13.25
2023-05-08T23:22:17.141Z,12.50
2023-05-08T23:24:44.918Z,15.52
2023-05-08T23:27:12.794Z,14.48
2023-05-08T23:29:40.629Z,13.52
2023-05-08T23:32:09.724Z,15.50
2023-05-08T23:34:37.435Z,14.80
2023-05-08T23:37:05.223Z,15.68
2023-05-08T23:39:37.660Z,14.60
2023-05-08T23:42:05.604Z,16.20
2023-05-08T23:44:33.383Z,15.35
2023-05-08T23:47:01.223Z,13.57
2023-05-08T23:49:30.438Z,17.33
2023-05-08T23:51:58.161Z,18.30
2023-05-08T23:54:25.981Z,13.68
2023-05-08T23:56:53.664Z,17.00
2023-05-08T23:59:21.424Z,15.98
